VBD201 CYYC-CYEG
Flight info
| Callsign | VBD201 |
|---|---|
| Flight time | 0h 34m |
| Altitude | 27000 |
| Route | BITGA Q995 OILRS OILRS2 |
| Aircraft | A20N/M-SDE2E3FGHIJ1RWXY/LB1 |
Departure
| Time | 2026-05-06 12:45 |
|---|---|
| Airport | Calgary International Airport (CYYC) |
Arrival
| Time | 2026-05-06 13:20 |
|---|---|
| Airport | Edmonton International Airport (CYEG) |
| Time | Latitude | Longitude | Altitude | Speed | Heading |
|---|---|---|---|---|---|
| 2026-05-06 12:18 | 51.12929 | -113.99783 | 3553 ft | 0 kts | 26° |
| 2026-05-06 12:39 | 51.12951 | -113.99765 | 3557 ft | 7 kts | 28° |
| 2026-05-06 12:39 | 51.13009 | -113.99718 | 3555 ft | 11 kts | 31° |
| 2026-05-06 12:39 | 51.13079 | -113.99637 | 3556 ft | 15 kts | 30° |
| 2026-05-06 12:39 | 51.13155 | -113.99504 | 3558 ft | 18 kts | 56° |
| 2026-05-06 12:40 | 51.13267 | -113.99449 | 3556 ft | 19 kts | 0° |
| 2026-05-06 12:40 | 51.13404 | -113.99446 | 3560 ft | 20 kts | 1° |
| 2026-05-06 12:40 | 51.13542 | -113.99442 | 3562 ft | 21 kts | 1° |
| 2026-05-06 12:40 | 51.13678 | -113.99438 | 3563 ft | 20 kts | 357° |
| 2026-05-06 12:41 | 51.13819 | -113.99444 | 3561 ft | 19 kts | 0° |
| 2026-05-06 12:41 | 51.13953 | -113.99436 | 3560 ft | 20 kts | 7° |
| 2026-05-06 12:41 | 51.14093 | -113.99336 | 3564 ft | 24 kts | 29° |
| 2026-05-06 12:41 | 51.14228 | -113.99310 | 3564 ft | 21 kts | 10° |
| 2026-05-06 12:42 | 51.14362 | -113.99306 | 3561 ft | 16 kts | 3° |
| 2026-05-06 12:42 | 51.14438 | -113.99301 | 3565 ft | 6 kts | 5° |
| 2026-05-06 12:42 | 51.14495 | -113.99302 | 3567 ft | 13 kts | 5° |
| 2026-05-06 12:42 | 51.14600 | -113.99272 | 3566 ft | 19 kts | 4° |
| 2026-05-06 12:43 | 51.14731 | -113.99253 | 3566 ft | 16 kts | 36° |
| 2026-05-06 12:43 | 51.14753 | -113.99212 | 3573 ft | 0 kts | 56° |
| 2026-05-06 12:44 | 51.14764 | -113.99136 | 3573 ft | 13 kts | 92° |
| 2026-05-06 12:44 | 51.14681 | -113.99040 | 3569 ft | 28 kts | 176° |
| 2026-05-06 12:45 | 51.14082 | -113.99043 | 3560 ft | 137 kts | 181° |
| 2026-05-06 12:45 | 51.12864 | -113.99031 | 3605 ft | 204 kts | 181° |
| 2026-05-06 12:45 | 51.09894 | -113.99079 | 5954 ft | 227 kts | 181° |
| 2026-05-06 12:46 | 51.08206 | -113.99071 | 6900 ft | 256 kts | 181° |
| 2026-05-06 12:46 | 51.06327 | -113.99060 | 7795 ft | 285 kts | 182° |
| 2026-05-06 12:46 | 51.04280 | -113.99053 | 8977 ft | 301 kts | 182° |
| 2026-05-06 12:46 | 51.02141 | -113.99047 | 10277 ft | 315 kts | 183° |
| 2026-05-06 12:47 | 50.99861 | -113.99050 | 11181 ft | 342 kts | 182° |
| 2026-05-06 12:47 | 50.97398 | -113.99038 | 12021 ft | 367 kts | 181° |
| 2026-05-06 12:47 | 50.94838 | -113.98340 | 13231 ft | 381 kts | 160° |
| 2026-05-06 12:47 | 50.92517 | -113.96253 | 14521 ft | 388 kts | 139° |
| 2026-05-06 12:48 | 50.90730 | -113.93046 | 15745 ft | 391 kts | 118° |
| 2026-05-06 12:48 | 50.89680 | -113.89090 | 16977 ft | 391 kts | 98° |
| 2026-05-06 12:48 | 50.89486 | -113.84823 | 18189 ft | 388 kts | 78° |
| 2026-05-06 12:48 | 50.90150 | -113.80726 | 19249 ft | 383 kts | 59° |
| 2026-05-06 12:49 | 50.91561 | -113.77229 | 20297 ft | 374 kts | 41° |
| 2026-05-06 12:49 | 50.93540 | -113.74638 | 21157 ft | 367 kts | 24° |
| 2026-05-06 12:49 | 50.95855 | -113.73212 | 22061 ft | 360 kts | 7° |
| 2026-05-06 12:49 | 50.98333 | -113.73003 | 22991 ft | 357 kts | 351° |
| 2026-05-06 12:50 | 51.00722 | -113.74025 | 23843 ft | 358 kts | 335° |
| 2026-05-06 12:50 | 51.02846 | -113.76112 | 24578 ft | 362 kts | 325° |
| 2026-05-06 12:50 | 51.04927 | -113.78399 | 25302 ft | 365 kts | 329° |
| 2026-05-06 12:50 | 51.07183 | -113.80274 | 26011 ft | 368 kts | 336° |
| 2026-05-06 12:51 | 51.09595 | -113.81716 | 26657 ft | 374 kts | 341° |
| 2026-05-06 12:51 | 51.12132 | -113.82899 | 26928 ft | 388 kts | 343° |
| 2026-05-06 12:51 | 51.14806 | -113.83975 | 26986 ft | 405 kts | 345° |
| 2026-05-06 12:51 | 51.17603 | -113.85040 | 26989 ft | 421 kts | 345° |
| 2026-05-06 12:52 | 51.20501 | -113.86137 | 26994 ft | 433 kts | 345° |
| 2026-05-06 12:52 | 51.23455 | -113.87267 | 27001 ft | 440 kts | 345° |
| 2026-05-06 12:52 | 51.26449 | -113.88425 | 27007 ft | 444 kts | 345° |
| 2026-05-06 12:52 | 51.29461 | -113.89597 | 27013 ft | 447 kts | 345° |
| 2026-05-06 12:53 | 51.32409 | -113.90747 | 27023 ft | 421 kts | 345° |
| 2026-05-06 12:53 | 51.35209 | -113.91843 | 27073 ft | 414 kts | 345° |
| 2026-05-06 12:53 | 51.38056 | -113.92964 | 27069 ft | 425 kts | 345° |
| 2026-05-06 12:53 | 51.40907 | -113.94087 | 27066 ft | 419 kts | 345° |
| 2026-05-06 12:54 | 51.43724 | -113.95196 | 27070 ft | 415 kts | 345° |
| 2026-05-06 12:54 | 51.46581 | -113.96087 | 27061 ft | 425 kts | 351° |
| 2026-05-06 12:54 | 51.49546 | -113.96380 | 27060 ft | 427 kts | 357° |
| 2026-05-06 12:54 | 51.52514 | -113.96058 | 27057 ft | 429 kts | 4° |
| 2026-05-06 12:55 | 51.55448 | -113.95159 | 27071 ft | 430 kts | 8° |
| 2026-05-06 12:55 | 51.57382 | -113.94478 | 27060 ft | 429 kts | 8° |
| 2026-05-06 12:55 | 51.60300 | -113.93472 | 27061 ft | 428 kts | 7° |
| 2026-05-06 12:55 | 51.63208 | -113.92466 | 27063 ft | 428 kts | 8° |
| 2026-05-06 12:56 | 51.66105 | -113.91353 | 27061 ft | 428 kts | 9° |
| 2026-05-06 12:56 | 51.68988 | -113.90183 | 27060 ft | 427 kts | 9° |
| 2026-05-06 12:56 | 51.71872 | -113.89003 | 27078 ft | 427 kts | 9° |
| 2026-05-06 12:56 | 51.74748 | -113.87833 | 27072 ft | 426 kts | 9° |
| 2026-05-06 12:57 | 51.77628 | -113.86668 | 27075 ft | 426 kts | 9° |
| 2026-05-06 12:57 | 51.80496 | -113.85512 | 27068 ft | 425 kts | 9° |
| 2026-05-06 12:57 | 51.83363 | -113.84358 | 27070 ft | 424 kts | 9° |
| 2026-05-06 12:57 | 51.86228 | -113.83205 | 27076 ft | 424 kts | 9° |
| 2026-05-06 12:58 | 51.89088 | -113.82053 | 27075 ft | 424 kts | 9° |
| 2026-05-06 12:58 | 51.91950 | -113.80898 | 27076 ft | 424 kts | 9° |
| 2026-05-06 12:58 | 51.94812 | -113.79741 | 27075 ft | 424 kts | 9° |
| 2026-05-06 12:58 | 51.97670 | -113.78584 | 27075 ft | 424 kts | 9° |
| 2026-05-06 12:59 | 52.00531 | -113.77424 | 27076 ft | 423 kts | 9° |
| 2026-05-06 12:59 | 52.03389 | -113.76264 | 27010 ft | 423 kts | 9° |
| 2026-05-06 12:59 | 52.06243 | -113.75103 | 27001 ft | 423 kts | 9° |
| 2026-05-06 12:59 | 52.09065 | -113.73954 | 26996 ft | 423 kts | 9° |
| 2026-05-06 13:00 | 52.11920 | -113.72790 | 27000 ft | 423 kts | 9° |
| 2026-05-06 13:00 | 52.14770 | -113.71627 | 26992 ft | 422 kts | 9° |
| 2026-05-06 13:00 | 52.17617 | -113.70463 | 26993 ft | 422 kts | 9° |
| 2026-05-06 13:00 | 52.20466 | -113.69298 | 26990 ft | 422 kts | 9° |
| 2026-05-06 13:01 | 52.23314 | -113.68132 | 26988 ft | 423 kts | 9° |
| 2026-05-06 13:01 | 52.26156 | -113.66964 | 26940 ft | 417 kts | 9° |
| 2026-05-06 13:01 | 52.28903 | -113.65827 | 26780 ft | 398 kts | 9° |
| 2026-05-06 13:01 | 52.31526 | -113.64738 | 26409 ft | 383 kts | 9° |
| 2026-05-06 13:02 | 52.34096 | -113.63679 | 25666 ft | 379 kts | 9° |
| 2026-05-06 13:02 | 52.36648 | -113.62632 | 24857 ft | 378 kts | 9° |
| 2026-05-06 13:02 | 52.39195 | -113.61587 | 24102 ft | 376 kts | 9° |
| 2026-05-06 13:02 | 52.41719 | -113.60546 | 23365 ft | 372 kts | 9° |
| 2026-05-06 13:03 | 52.44220 | -113.59512 | 22567 ft | 369 kts | 9° |
| 2026-05-06 13:03 | 52.46694 | -113.58487 | 21782 ft | 366 kts | 9° |
| 2026-05-06 13:03 | 52.49152 | -113.57468 | 21026 ft | 362 kts | 9° |
| 2026-05-06 13:03 | 52.51584 | -113.56458 | 20302 ft | 359 kts | 9° |
| 2026-05-06 13:04 | 52.53989 | -113.55457 | 19657 ft | 354 kts | 9° |
| 2026-05-06 13:04 | 52.56367 | -113.54467 | 18930 ft | 351 kts | 9° |
| 2026-05-06 13:04 | 52.58729 | -113.53485 | 18200 ft | 349 kts | 10° |
| 2026-05-06 13:04 | 52.61094 | -113.52780 | 17444 ft | 342 kts | 1° |
| 2026-05-06 13:05 | 52.63447 | -113.52835 | 16717 ft | 335 kts | 351° |
| 2026-05-06 13:05 | 52.65715 | -113.53602 | 15946 ft | 332 kts | 341° |
| 2026-05-06 13:05 | 52.67908 | -113.54739 | 15254 ft | 329 kts | 341° |
| 2026-05-06 13:05 | 52.70083 | -113.55846 | 14589 ft | 326 kts | 341° |
| 2026-05-06 13:06 | 52.72244 | -113.56936 | 13930 ft | 324 kts | 341° |
| 2026-05-06 13:06 | 52.74391 | -113.58035 | 13215 ft | 321 kts | 341° |
| 2026-05-06 13:06 | 52.76515 | -113.59129 | 12496 ft | 319 kts | 341° |
| 2026-05-06 13:06 | 52.78626 | -113.60207 | 11802 ft | 316 kts | 341° |
| 2026-05-06 13:07 | 52.80722 | -113.61268 | 11129 ft | 314 kts | 341° |
| 2026-05-06 13:07 | 52.82808 | -113.62320 | 10467 ft | 312 kts | 341° |
| 2026-05-06 13:07 | 52.84878 | -113.63365 | 9818 ft | 310 kts | 341° |
| 2026-05-06 13:07 | 52.86913 | -113.64398 | 9045 ft | 311 kts | 341° |
| 2026-05-06 13:08 | 52.88984 | -113.65453 | 8249 ft | 312 kts | 342° |
| 2026-05-06 13:08 | 52.91069 | -113.66517 | 7542 ft | 313 kts | 342° |
| 2026-05-06 13:08 | 52.93168 | -113.67588 | 7200 ft | 325 kts | 342° |
| 2026-05-06 13:08 | 52.95293 | -113.68671 | 7083 ft | 311 kts | 342° |
| 2026-05-06 13:09 | 52.97290 | -113.69691 | 7052 ft | 289 kts | 342° |
| 2026-05-06 13:09 | 52.99143 | -113.70637 | 7039 ft | 268 kts | 342° |
| 2026-05-06 13:09 | 53.00880 | -113.71525 | 7048 ft | 258 kts | 342° |
| 2026-05-06 13:09 | 53.02599 | -113.72410 | 7032 ft | 259 kts | 342° |
| 2026-05-06 13:10 | 53.04328 | -113.73303 | 7025 ft | 260 kts | 343° |
| 2026-05-06 13:10 | 53.06054 | -113.74148 | 7028 ft | 259 kts | 344° |
| 2026-05-06 13:10 | 53.07778 | -113.75000 | 6974 ft | 259 kts | 342° |
| 2026-05-06 13:10 | 53.09483 | -113.75883 | 6769 ft | 256 kts | 342° |
| 2026-05-06 13:11 | 53.11165 | -113.76773 | 6505 ft | 251 kts | 342° |
| 2026-05-06 13:11 | 53.12821 | -113.77645 | 6130 ft | 250 kts | 342° |
| 2026-05-06 13:11 | 53.14488 | -113.78522 | 5689 ft | 252 kts | 342° |
| 2026-05-06 13:11 | 53.16169 | -113.79405 | 5243 ft | 255 kts | 342° |
| 2026-05-06 13:12 | 53.17847 | -113.80284 | 5031 ft | 249 kts | 342° |
| 2026-05-06 13:12 | 53.19536 | -113.81163 | 4997 ft | 257 kts | 343° |
| 2026-05-06 13:12 | 53.21227 | -113.82047 | 4987 ft | 253 kts | 342° |
| 2026-05-06 13:12 | 53.22915 | -113.82933 | 4989 ft | 256 kts | 343° |
| 2026-05-06 13:13 | 53.24613 | -113.83816 | 4989 ft | 254 kts | 342° |
| 2026-05-06 13:13 | 53.26300 | -113.84706 | 4984 ft | 256 kts | 342° |
| 2026-05-06 13:13 | 53.27970 | -113.85589 | 4987 ft | 255 kts | 342° |
| 2026-05-06 13:13 | 53.29657 | -113.86477 | 4985 ft | 255 kts | 342° |
| 2026-05-06 13:14 | 53.31318 | -113.87340 | 4986 ft | 243 kts | 343° |
| 2026-05-06 13:14 | 53.32884 | -113.88150 | 4987 ft | 231 kts | 343° |
| 2026-05-06 13:14 | 53.34416 | -113.88943 | 4988 ft | 226 kts | 343° |
| 2026-05-06 13:14 | 53.35887 | -113.89653 | 4991 ft | 214 kts | 352° |
| 2026-05-06 13:15 | 53.37272 | -113.89340 | 5012 ft | 198 kts | 27° |
| 2026-05-06 13:15 | 53.38422 | -113.87822 | 4999 ft | 210 kts | 46° |
| 2026-05-06 13:15 | 53.39485 | -113.86064 | 4995 ft | 220 kts | 47° |
| 2026-05-06 13:15 | 53.40531 | -113.84297 | 4993 ft | 205 kts | 47° |
| 2026-05-06 13:16 | 53.41169 | -113.82277 | 4986 ft | 195 kts | 88° |
| 2026-05-06 13:16 | 53.40837 | -113.80201 | 4996 ft | 185 kts | 119° |
| 2026-05-06 13:16 | 53.40179 | -113.78360 | 4989 ft | 184 kts | 125° |
| 2026-05-06 13:16 | 53.39467 | -113.76586 | 4987 ft | 184 kts | 127° |
| 2026-05-06 13:17 | 53.38724 | -113.74851 | 4979 ft | 184 kts | 128° |
| 2026-05-06 13:17 | 53.37954 | -113.73147 | 4983 ft | 184 kts | 129° |
| 2026-05-06 13:17 | 53.37161 | -113.71475 | 4980 ft | 182 kts | 131° |
| 2026-05-06 13:17 | 53.36358 | -113.69852 | 4979 ft | 180 kts | 132° |
| 2026-05-06 13:18 | 53.35558 | -113.68235 | 4418 ft | 181 kts | 130° |
| 2026-05-06 13:18 | 53.34823 | -113.66608 | 4197 ft | 171 kts | 130° |
| 2026-05-06 13:18 | 53.34056 | -113.65086 | 3863 ft | 169 kts | 136° |
| 2026-05-06 13:18 | 53.33235 | -113.63756 | 3681 ft | 163 kts | 141° |
| 2026-05-06 13:19 | 53.32463 | -113.62502 | 3293 ft | 142 kts | 140° |
| 2026-05-06 13:19 | 53.31783 | -113.61417 | 2869 ft | 130 kts | 142° |
| 2026-05-06 13:19 | 53.31138 | -113.60427 | 2581 ft | 119 kts | 136° |
| 2026-05-06 13:19 | 53.30587 | -113.59489 | 2398 ft | 107 kts | 136° |
| 2026-05-06 13:20 | 53.30155 | -113.58775 | 2356 ft | 50 kts | 134° |
| 2026-05-06 13:20 | 53.29943 | -113.58397 | 2355 ft | 37 kts | 148° |
| 2026-05-06 13:20 | 53.29782 | -113.58184 | 2355 ft | 28 kts | 126° |
| 2026-05-06 13:20 | 53.29639 | -113.57908 | 2353 ft | 36 kts | 137° |
| 2026-05-06 13:21 | 53.29504 | -113.57618 | 2351 ft | 30 kts | 101° |
| 2026-05-06 13:21 | 53.29487 | -113.57367 | 2352 ft | 21 kts | 80° |
| 2026-05-06 13:21 | 53.29586 | -113.57349 | 2352 ft | 18 kts | 316° |
| 2026-05-06 13:21 | 53.29678 | -113.57504 | 2352 ft | 20 kts | 314° |
| 2026-05-06 13:22 | 53.29782 | -113.57680 | 2353 ft | 18 kts | 315° |
| 2026-05-06 13:22 | 53.29870 | -113.57843 | 2354 ft | 19 kts | 307° |
| 2026-05-06 13:22 | 53.29982 | -113.57883 | 2354 ft | 17 kts | 26° |
| 2026-05-06 13:22 | 53.30074 | -113.57817 | 2354 ft | 13 kts | 328° |
| 2026-05-06 13:23 | 53.30165 | -113.57876 | 2354 ft | 15 kts | 20° |
| 2026-05-06 13:23 | 53.30245 | -113.57766 | 2354 ft | 11 kts | 30° |
| 2026-05-06 13:23 | 53.30305 | -113.57790 | 2354 ft | 7 kts | 330° |
| 2026-05-06 13:23 | 53.30318 | -113.57803 | 2354 ft | 1 kts | 328° |
| 2026-05-06 13:24 | 53.30320 | -113.57805 | 2354 ft | 0 kts | 327° |